Time;durP1;ratioP1;P1;durP2;ratioP2;P2;SDS_P1;SDS_P2;PMS_P1;PMS_P2;Temp;Humidity;BMP_temperature;BMP_pressure;BME280_temperature;BME280_humidity;BME280_pressure;Samples;Min_cycle;Max_cycle;Signal;HPM_P1;HPM_P2
2022/11/03 00:00:37;;;;;;;12.77;7.90;;;;;;;14.67;100.00;101772.28;2071094;28;20448;-63
2022/11/03 00:01:43;;;;;;;12.20;7.27;;;;;;;15.56;100.00;101926.97;2072284;28;20193;-62
2022/11/03 00:02:43;;;;;;;14.30;7.43;;;;;;;15.59;100.00;101916.94;2071372;28;20193;-62
2022/11/03 00:03:43;;;;;;;14.70;7.37;;;;;;;15.61;100.00;101918.09;2071683;28;20535;-62
2022/11/03 00:04:44;;;;;;;15.10;7.23;;;;;;;15.63;100.00;101920.44;2071256;28;20197;-62
2022/11/03 00:07:04;;;;;;;12.30;7.33;;;;;;;15.62;100.00;101927.25;2071013;28;20176;-62
2022/11/03 00:08:04;;;;;;;12.70;7.27;;;;;;;15.61;100.00;101917.28;2071355;28;20412;-62
2022/11/03 00:09:07;;;;;;;11.60;6.90;;;;;;;15.68;100.00;101922.72;2072699;28;20185;-63
2022/11/03 00:10:08;;;;;;;12.93;6.93;;;;;;;15.71;100.00;101919.03;2071943;28;20627;-62
2022/11/03 00:11:11;;;;;;;13.20;6.73;;;;;;;15.68;100.00;101920.69;2071741;28;20463;-63
2022/11/03 00:12:11;;;;;;;11.63;6.70;;;;;;;15.69;100.00;101918.69;2072148;28;20196;-63
2022/11/03 00:13:12;;;;;;;12.10;6.93;;;;;;;15.65;100.00;101918.78;2071501;28;20487;-62
2022/11/03 00:14:15;;;;;;;11.13;6.60;;;;;;;15.69;100.00;101924.28;2071232;28;20194;-62
2022/11/03 00:15:16;;;;;;;13.90;7.57;;;;;;;15.71;100.00;101924.63;2071846;28;26636;-63
2022/11/03 00:16:16;;;;;;;27.00;7.90;;;;;;;15.76;100.00;101930.50;2071968;28;20425;-63
2022/11/03 00:17:17;;;;;;;16.20;7.37;;;;;;;15.63;100.00;101906.47;2071091;28;20213;-63
2022/11/03 00:18:17;;;;;;;16.83;7.60;;;;;;;15.78;100.00;101924.47;2072238;28;20194;-63
2022/11/03 00:19:18;;;;;;;12.40;7.67;;;;;;;15.78;100.00;101918.88;2071949;28;20652;-63
2022/11/03 00:20:18;;;;;;;12.23;7.40;;;;;;;15.64;100.00;101899.66;2071351;28;20251;-63
2022/11/03 00:21:19;;;;;;;14.37;7.03;;;;;;;15.77;100.00;101926.47;2071855;28;20550;-62
2022/11/03 00:22:19;;;;;;;13.60;7.10;;;;;;;15.79;100.00;101928.84;2079649;28;20192;-63
2022/11/03 00:23:20;;;;;;;13.77;7.90;;;;;;;15.80;100.00;101927.59;2079034;28;20211;-62
2022/11/03 00:24:20;;;;;;;13.97;7.03;;;;;;;15.76;100.00;101927.69;2072100;28;20647;-62
2022/11/03 00:25:20;;;;;;;18.23;7.07;;;;;;;15.77;100.00;101928.50;2071657;28;20182;-63
2022/11/03 00:26:26;;;;;;;12.63;7.37;;;;;;;15.79;100.00;101951.97;2072402;28;20265;-62
2022/11/03 00:27:26;;;;;;;16.20;7.67;;;;;;;15.79;100.00;101935.19;2071511;28;20224;-62
2022/11/03 00:28:30;;;;;;;13.87;7.10;;;;;;;15.79;100.00;101940.00;2071586;28;20444;-62
2022/11/03 00:29:30;;;;;;;14.73;7.27;;;;;;;15.80;100.00;101927.59;2071545;28;20229;-62
2022/11/03 00:30:30;;;;;;;12.33;7.00;;;;;;;15.78;100.00;101936.41;2070374;28;20437;-62
2022/11/03 00:31:33;;;;;;;14.73;7.03;;;;;;;15.77;100.00;101937.66;2071755;28;20188;-62
2022/11/03 00:32:34;;;;;;;11.93;7.80;;;;;;;15.75;100.00;101934.50;2071467;28;20197;-63
2022/11/03 00:33:37;;;;;;;13.37;7.77;;;;;;;15.73;100.00;101939.75;2071161;28;20464;-63
2022/11/03 00:34:38;;;;;;;13.67;7.27;;;;;;;15.75;100.00;101936.50;2071852;28;20177;-62
2022/11/03 00:35:38;;;;;;;12.37;7.83;;;;;;;15.76;100.00;101938.06;2072468;28;20444;-63
2022/11/03 00:36:43;;;;;;;16.77;7.20;;;;;;;15.72;100.00;101931.81;2071045;28;20255;-63
2022/11/03 00:37:44;;;;;;;14.63;7.70;;;;;;;15.66;100.00;101923.16;2071863;28;20191;-63
2022/11/03 00:38:45;;;;;;;17.93;7.90;;;;;;;15.68;100.00;101929.06;2070051;28;20450;-62
2022/11/03 00:39:45;;;;;;;14.00;7.47;;;;;;;15.72;100.00;101931.81;2072147;28;20189;-62
2022/11/03 00:40:52;;;;;;;13.77;7.00;;;;;;;15.70;100.00;101932.25;2071375;28;20487;-62
2022/11/03 00:41:52;;;;;;;15.27;8.03;;;;;;;15.70;100.00;101935.03;2071616;28;20199;-62
2022/11/03 00:42:53;;;;;;;14.07;7.70;;;;;;;15.71;100.00;101933.00;2071585;28;20447;-62
2022/11/03 00:43:54;;;;;;;15.00;7.47;;;;;;;15.71;100.00;101935.81;2071406;28;20200;-62
2022/11/03 00:44:54;;;;;;;13.40;8.40;;;;;;;15.71;100.00;101939.41;2071109;28;20298;-62
2022/11/03 00:45:55;;;;;;;15.13;7.43;;;;;;;15.15;100.00;101842.94;2071697;28;20185;-62
2022/11/03 00:46:55;;;;;;;16.23;7.80;;;;;;;15.73;100.00;101941.75;2070355;28;20185;-63
2022/11/03 00:49:15;;;;;;;12.87;7.93;;;;;;;15.74;100.00;101940.53;2071849;28;20200;-62
2022/11/03 00:50:15;;;;;;;12.13;7.60;;;;;;;15.75;100.00;101942.09;2071641;28;20543;-62
2022/11/03 00:51:24;;;;;;;13.80;8.13;;;;;;;15.13;100.00;101853.75;2071162;28;20223;-62
2022/11/03 00:52:25;;;;;;;14.63;7.80;;;;;;;15.68;100.00;101934.66;2071559;28;20686;-63
2022/11/03 00:53:25;;;;;;;13.33;8.20;;;;;;;15.67;100.00;101941.47;2071186;28;20831;-62
2022/11/03 00:54:25;;;;;;;13.07;7.10;;;;;;;15.63;100.00;101932.41;2071445;28;20680;-62
2022/11/03 00:55:26;;;;;;;14.03;8.03;;;;;;;15.66;100.00;101937.13;2071646;28;20275;-62
2022/11/03 00:56:32;;;;;;;13.07;7.87;;;;;;;15.66;100.00;101937.13;2071171;28;20182;-62
2022/11/03 00:57:32;;;;;;;13.60;7.87;;;;;;;15.70;100.00;101937.03;2071441;28;20300;-62
2022/11/03 00:58:33;;;;;;;14.67;7.97;;;;;;;15.67;100.00;101935.91;2071802;28;20444;-62
2022/11/03 00:59:33;;;;;;;14.07;7.83;;;;;;;15.65;100.00;101943.94;2071622;28;20290;-62
2022/11/03 01:00:34;;;;;;;13.60;8.77;;;;;;;15.58;100.00;101924.53;2071607;28;20193;-62
2022/11/03 01:01:36;;;;;;;17.67;8.57;;;;;;;15.67;100.00;101941.47;2071635;28;20194;-62
2022/11/03 01:02:37;;;;;;;12.13;7.50;;;;;;;15.13;100.00;101850.16;2071682;28;20766;-62
2022/11/03 01:03:39;;;;;;;14.10;7.83;;;;;;;15.67;100.00;101937.91;2071358;28;20952;-62
2022/11/03 01:07:20;;;;;;;13.20;8.33;;;;;;;15.63;100.00;101948.41;2071271;28;20428;-62
2022/11/03 01:08:20;;;;;;;12.90;7.87;;;;;;;15.67;100.00;101935.13;2071103;28;20540;-62
2022/11/03 01:09:29;;;;;;;14.70;7.90;;;;;;;15.68;100.00;101934.66;2071229;28;21036;-62
2022/11/03 01:10:30;;;;;;;12.73;8.10;;;;;;;15.68;100.00;101937.47;2071637;28;20211;-63
2022/11/03 01:11:43;;;;;;;12.27;7.87;;;;;;;15.69;100.00;101932.66;2071312;28;20424;-62
2022/11/03 01:12:43;;;;;;;13.27;8.10;;;;;;;15.70;100.00;101937.84;2071129;28;20642;-62
2022/11/03 01:13:45;;;;;;;13.80;8.57;;;;;;;15.67;100.00;101940.72;2070984;28;21122;-63
2022/11/03 01:14:51;;;;;;;15.00;8.23;;;;;;;15.59;100.00;101920.53;2070826;28;20271;-63
2022/11/03 01:15:55;;;;;;;14.93;8.53;;;;;;;15.68;100.00;101925.50;2071702;28;20854;-62
2022/11/03 01:16:56;;;;;;;14.80;8.47;;;;;;;15.71;100.00;101935.81;2071628;28;20511;-62
2022/11/03 01:17:56;;;;;;;14.87;9.00;;;;;;;15.72;100.00;101935.38;2071071;28;20446;-63
2022/11/03 01:18:57;;;;;;;15.57;9.27;;;;;;;15.71;100.00;101931.00;2069715;28;20219;-62
2022/11/03 01:19:58;;;;;;;15.77;8.73;;;;;;;15.69;100.00;101932.66;2071221;28;20790;-62
2022/11/03 01:20:58;;;;;;;13.97;8.90;;;;;;;15.66;100.00;101936.31;2071344;28;20635;-62
2022/11/03 01:21:59;;;;;;;13.53;8.37;;;;;;;15.65;100.00;101929.16;2078980;28;20333;-62
2022/11/03 01:22:59;;;;;;;15.10;8.80;;;;;;;15.64;100.00;101936.78;2078761;28;20194;-63
2022/11/03 01:24:00;;;;;;;15.60;8.80;;;;;;;14.94;100.00;101832.25;2071233;28;20201;-62
2022/11/03 01:25:01;;;;;;;14.07;8.43;;;;;;;15.58;100.00;101932.91;2072129;28;20815;-62
2022/11/03 01:26:09;;;;;;;14.90;8.80;;;;;;;15.62;100.00;101933.63;2071111;28;20453;-62
2022/11/03 01:27:12;;;;;;;13.97;8.70;;;;;;;15.62;100.00;101927.25;2070886;28;20188;-62
2022/11/03 01:28:12;;;;;;;15.30;9.47;;;;;;;15.59;100.00;101925.31;2071294;28;20513;-62
2022/11/03 01:29:13;;;;;;;12.17;8.40;;;;;;;15.51;100.00;101923.91;2071426;28;20565;-62
2022/11/03 01:30:13;;;;;;;12.07;8.40;;;;;;;15.58;100.00;101932.91;2070326;28;20194;-62
2022/11/03 01:31:17;;;;;;;13.43;8.47;;;;;;;15.55;100.00;101927.41;2071560;28;20222;-62
2022/11/03 01:32:18;;;;;;;15.90;9.27;;;;;;;15.48;100.00;101925.56;2071309;28;20186;-62
2022/11/03 01:33:18;;;;;;;12.87;8.60;;;;;;;15.45;100.00;101931.25;2071171;28;20430;-62
2022/11/03 01:34:20;;;;;;;11.93;8.37;;;;;;;15.43;100.00;101928.88;2071477;28;20193;-62
2022/11/03 01:35:20;;;;;;;15.63;8.47;;;;;;;15.41;100.00;101928.53;2071532;28;20187;-62
2022/11/03 01:36:21;;;;;;;13.80;8.83;;;;;;;15.34;100.00;101925.91;2071363;28;21058;-62
2022/11/03 01:37:23;;;;;;;12.60;8.53;;;;;;;15.31;100.00;101923.19;2070981;28;20203;-62
2022/11/03 01:38:24;;;;;;;13.53;9.20;;;;;;;15.29;100.00;101931.19;2071157;28;20192;-62
2022/11/03 01:39:24;;;;;;;16.60;8.70;;;;;;;15.17;100.00;101926.28;2071283;28;20453;-62
2022/11/03 01:40:25;;;;;;;13.73;9.43;;;;;;;15.15;100.00;101935.09;2071404;28;20196;-62
2022/11/03 01:41:27;;;;;;;18.67;9.30;;;;;;;15.12;100.00;101938.72;2071099;28;20682;-62
2022/11/03 01:42:27;;;;;;;13.90;8.93;;;;;;;15.05;100.00;101944.47;2070821;28;20227;-62
2022/11/03 01:43:30;;;;;;;14.07;8.77;;;;;;;15.02;100.00;101939.75;2071524;28;20462;-62
2022/11/03 01:44:42;;;;;;;14.10;9.53;;;;;;;15.03;100.00;101946.91;2070925;28;20197;-62
2022/11/03 01:45:43;;;;;;;16.33;10.20;;;;;;;15.06;100.00;101939.69;2071085;28;20448;-62
2022/11/03 01:46:53;;;;;;;14.60;9.03;;;;;;;15.05;100.00;101950.06;2071460;28;20480;-62
2022/11/03 01:47:54;;;;;;;15.97;10.37;;;;;;;15.08;100.00;101952.00;2071352;28;20883;-62
2022/11/03 01:49:08;;;;;;;16.40;10.20;;;;;;;15.10;100.00;101943.16;2070897;28;20487;-63
2022/11/03 01:50:14;;;;;;;15.33;9.17;;;;;;;15.10;100.00;101957.94;2070583;28;20289;-62
2022/11/03 01:51:19;;;;;;;16.47;9.23;;;;;;;15.04;100.00;101940.13;2071242;28;20435;-62
2022/11/03 01:52:58;;;;;;;19.37;10.77;;;;;;;15.11;100.00;101947.56;2070148;28;20480;-62
2022/11/03 01:54:03;;;;;;;15.43;9.57;;;;;;;15.11;100.00;101945.53;2069981;28;20443;-62
2022/11/03 01:55:12;;;;;;;15.63;9.77;;;;;;;15.07;100.00;101944.03;2070818;28;21072;-62
2022/11/03 01:56:15;;;;;;;13.67;9.87;;;;;;;15.03;100.00;101949.72;2071100;28;21101;-62
2022/11/03 01:57:22;;;;;;;16.33;10.13;;;;;;;15.07;100.00;101955.97;2071470;28;20498;-62
2022/11/03 01:58:30;;;;;;;18.37;9.77;;;;;;;14.59;100.00;101877.66;2070961;28;20430;-62
2022/11/03 01:59:31;;;;;;;16.43;10.23;;;;;;;15.09;100.00;101953.56;2070980;28;20430;-62
2022/11/03 02:00:32;;;;;;;16.97;10.40;;;;;;;15.09;100.00;101952.75;2071170;28;20436;-62
2022/11/03 02:01:33;;;;;;;17.37;10.43;;;;;;;14.42;100.00;101850.94;2071332;28;20194;-62
2022/11/03 02:02:34;;;;;;;17.93;10.37;;;;;;;14.60;100.00;101890.41;2070685;28;20714;-62
2022/11/03 02:03:39;;;;;;;15.40;10.30;;;;;;;15.05;100.00;101963.22;2070569;28;21234;-62
2022/11/03 02:04:41;;;;;;;14.70;10.30;;;;;;;15.04;100.00;101956.06;2070568;28;20770;-62
2022/11/03 02:05:44;;;;;;;15.73;10.23;;;;;;;14.46;100.00;101871.16;2071245;28;20460;-62
2022/11/03 02:06:52;;;;;;;16.83;10.07;;;;;;;15.04;100.00;101959.66;2070738;28;20508;-62
2022/11/03 02:07:57;;;;;;;19.47;10.37;;;;;;;14.95;100.00;101955.84;2069524;28;20423;-62
2022/11/03 02:09:02;;;;;;;17.40;10.50;;;;;;;14.99;100.00;101974.13;2071436;28;20427;-62
2022/11/03 02:10:03;;;;;;;16.73;9.87;;;;;;;14.98;100.00;101963.38;2069740;28;20435;-62
2022/11/03 02:12:05;;;;;;;17.80;11.07;;;;;;;14.97;100.00;101961.81;2071843;28;20482;-62
2022/11/03 02:12:25;;;;;;;16.97;10.33;;;;;;;14.49;100.00;101891.84;2069675;28;20427;-62
2022/11/03 02:13:26;;;;;;;16.27;10.37;;;;;;;14.98;100.00;101964.19;2078842;28;20419;-62
2022/11/03 02:14:26;;;;;;;16.20;10.60;;;;;;;14.94;100.00;101974.63;2078851;28;20437;-62
2022/11/03 02:15:29;;;;;;;17.33;11.03;;;;;;;14.97;100.00;101968.16;2071191;28;20443;-62
2022/11/03 02:16:31;;;;;;;16.70;10.17;;;;;;;14.89;100.00;101957.56;2071276;28;20186;-62
2022/11/03 02:17:34;;;;;;;15.00;10.17;;;;;;;14.94;100.00;101965.44;2070656;28;20464;-62
2022/11/03 02:18:35;;;;;;;15.13;11.03;;;;;;;14.93;100.00;101966.66;2070713;28;20448;-62
2022/11/03 02:19:41;;;;;;;17.90;10.67;;;;;;;14.89;100.00;101972.31;2070997;28;20441;-62
2022/11/03 02:20:46;;;;;;;18.03;10.47;;;;;;;14.51;100.00;101911.72;2070991;28;20239;-62
2022/11/03 02:22:09;;;;;;;18.93;10.30;;;;;;;14.84;100.00;101975.63;2070140;28;20918;-62
2022/11/03 02:23:28;;;;;;;17.67;11.13;;;;;;;14.79;100.00;101978.09;2070788;28;21719;-62
2022/11/03 02:24:56;;;;;;;15.97;10.80;;;;;;;14.76;100.00;101976.19;2071462;28;20435;-62
2022/11/03 02:25:58;;;;;;;18.00;10.83;;;;;;;14.60;100.00;101964.94;2071235;28;20435;-62
2022/11/03 02:26:59;;;;;;;17.60;10.63;;;;;;;14.68;100.00;101974.75;2070769;28;20555;-62
2022/11/03 02:28:00;;;;;;;15.47;9.90;;;;;;;14.60;100.00;101973.31;2070778;28;20585;-62
2022/11/03 02:29:01;;;;;;;18.20;10.53;;;;;;;14.57;100.00;101971.38;2071276;28;20207;-62
2022/11/03 02:30:03;;;;;;;16.53;10.53;;;;;;;14.56;100.00;101981.72;2069916;28;20450;-62
2022/11/03 02:31:18;;;;;;;19.20;11.73;;;;;;;14.59;100.00;101977.28;2071028;28;20207;-62
2022/11/03 02:32:32;;;;;;;16.57;10.50;;;;;;;14.52;100.00;101971.88;2070673;28;20436;-62
2022/11/03 02:33:57;;;;;;;16.30;10.73;;;;;;;14.51;100.00;101982.22;2070518;28;20431;-62
2022/11/03 02:35:30;;;;;;;19.33;10.77;;;;;;;14.49;100.00;101986.69;2069773;28;20455;-62
2022/11/03 02:36:45;;;;;;;16.87;10.47;;;;;;;14.05;100.00;101923.69;2070473;28;20802;-62
2022/11/03 02:37:50;;;;;;;17.50;10.77;;;;;;;14.42;100.00;101989.59;2070814;28;20507;-62
2022/11/03 02:39:14;;;;;;;21.43;11.40;;;;;;;14.40;100.00;101984.41;2069512;28;20807;-62
2022/11/03 02:40:22;;;;;;;18.63;11.63;;;;;;;14.39;100.00;101985.66;2070996;28;20421;-62
2022/11/03 02:41:25;;;;;;;21.47;11.53;;;;;;;14.39;100.00;101990.44;2070200;28;20432;-62
2022/11/03 02:42:25;;;;;;;20.03;11.60;;;;;;;14.41;100.00;101985.22;2071317;28;21018;-62
2022/11/03 02:43:28;;;;;;;17.50;12.07;;;;;;;14.38;100.00;101986.06;2069838;28;20800;-62
2022/11/03 02:44:28;;;;;;;18.53;11.80;;;;;;;14.38;100.00;101988.84;2071490;28;20185;-63
2022/11/03 02:45:30;;;;;;;21.40;12.53;;;;;;;14.39;100.00;101991.22;2071074;28;20451;-62
2022/11/03 02:46:33;;;;;;;18.63;12.13;;;;;;;14.40;100.00;101986.44;2070971;28;20216;-62
2022/11/03 02:47:38;;;;;;;17.57;12.10;;;;;;;14.39;100.00;101982.84;2069789;28;20436;-62
2022/11/03 02:48:38;;;;;;;21.83;12.53;;;;;;;14.39;100.00;101990.44;2069675;28;20452;-62
2022/11/03 02:49:49;;;;;;;17.70;12.17;;;;;;;14.38;100.00;101989.66;2070433;28;20429;-62
2022/11/03 02:50:50;;;;;;;20.87;12.93;;;;;;;14.36;100.00;101988.50;2070755;28;20287;-62
2022/11/03 02:52:00;;;;;;;23.13;12.60;;;;;;;14.38;100.00;101983.28;2069941;28;20472;-62
2022/11/03 02:53:00;;;;;;;18.97;12.63;;;;;;;14.29;100.00;101981.03;2070926;28;20237;-62
2022/11/03 02:54:09;;;;;;;19.83;11.77;;;;;;;14.31;100.00;101981.41;2072589;28;20420;-62
2022/11/03 02:55:47;;;;;;;18.57;12.07;;;;;;;14.34;100.00;101977.75;2072035;28;20180;-62
2022/11/03 02:56:56;;;;;;;16.83;10.97;;;;;;;14.29;100.00;101980.28;2072184;28;21024;-62
2022/11/03 02:58:05;;;;;;;21.40;12.30;;;;;;;14.28;100.00;101982.25;2072311;28;20959;-62
2022/11/03 02:59:14;;;;;;;17.53;11.43;;;;;;;14.29;100.00;101983.81;2071864;28;20443;-62
2022/11/03 03:00:16;;;;;;;17.20;10.90;;;;;;;13.77;100.00;101896.31;2072689;28;20447;-63
2022/11/03 03:01:33;;;;;;;20.83;11.87;;;;;;;14.30;100.00;101982.59;2072399;28;20440;-62
2022/11/03 03:02:50;;;;;;;20.00;12.40;;;;;;;14.31;100.00;101977.84;2072051;28;20431;-62
2022/11/03 03:03:54;;;;;;;18.70;12.80;;;;;;;14.30;100.00;101977.03;2071677;28;20501;-62
2022/11/03 03:04:59;;;;;;;19.37;12.43;;;;;;;14.31;100.00;101983.41;2071935;28;20455;-62
2022/11/03 03:06:08;;;;;;;20.27;12.40;;;;;;;14.28;100.00;101989.81;2072839;28;20424;-62
2022/11/03 03:07:43;;;;;;;19.17;12.53;;;;;;;14.30;100.00;101988.19;2071439;28;20965;-63
2022/11/03 03:08:49;;;;;;;21.57;12.67;;;;;;;14.29;100.00;101983.06;2067214;28;20436;-62
2022/11/03 03:10:15;;;;;;;19.67;12.43;;;;;;;14.24;100.00;101992.69;2072616;28;20424;-62
2022/11/03 03:11:35;;;;;;;20.03;11.97;;;;;;;14.24;100.00;101991.91;2072282;28;20991;-62
2022/11/03 03:12:40;;;;;;;21.43;12.60;;;;;;;14.22;100.00;101986.75;2071097;28;20424;-62
2022/11/03 03:13:43;;;;;;;20.40;11.73;;;;;;;14.22;100.00;102000.69;2072302;28;21034;-62
2022/11/03 03:14:46;;;;;;;22.07;13.03;;;;;;;14.21;100.00;101989.97;2072648;28;20417;-62
2022/11/03 03:16:10;;;;;;;19.33;13.77;;;;;;;14.18;100.00;101990.75;2072398;28;20868;-62
2022/11/03 03:17:13;;;;;;;17.20;11.97;;;;;;;14.16;100.00;101991.22;2070983;28;20444;-62
2022/11/03 03:18:22;;;;;;;18.30;12.73;;;;;;;14.15;100.00;101986.81;2071250;28;20517;-62
2022/11/03 03:19:25;;;;;;;23.20;14.20;;;;;;;14.08;100.00;101991.75;2071879;28;20813;-63
2022/11/03 03:20:52;;;;;;;18.53;12.83;;;;;;;14.06;100.00;101994.16;2072601;28;20458;-62
2022/11/03 03:21:56;;;;;;;27.17;13.77;;;;;;;14.05;100.00;101990.59;2063855;28;20445;-62
2022/11/03 03:23:12;;;;;;;21.43;12.87;;;;;;;14.05;100.00;101989.81;2072059;28;20448;-62
2022/11/03 03:24:36;;;;;;;21.60;13.07;;;;;;;13.67;100.00;101938.25;2072281;28;20448;-62
2022/11/03 03:25:49;;;;;;;19.03;13.43;;;;;;;14.05;100.00;101998.97;2072629;28;20463;-62
2022/11/03 03:26:52;;;;;;;22.73;14.37;;;;;;;14.01;100.00;101992.66;2071282;28;20504;-62
2022/11/03 03:28:00;;;;;;;22.20;14.37;;;;;;;14.02;100.00;102001.78;2072341;28;20430;-62
2022/11/03 03:29:08;;;;;;;21.33;13.80;;;;;;;13.23;100.00;101880.84;2072400;28;20526;-62
2022/11/03 03:30:09;;;;;;;22.43;14.47;;;;;;;13.96;100.00;101995.91;2072462;28;20439;-62
2022/11/03 03:31:13;;;;;;;20.03;14.30;;;;;;;13.91;100.00;101999.19;2072081;28;20451;-62
2022/11/03 03:32:18;;;;;;;21.73;13.60;;;;;;;13.17;100.00;101890.09;2072336;28;20448;-62
2022/11/03 03:33:19;;;;;;;18.23;13.03;;;;;;;13.89;100.00;102006.38;2071267;28;20470;-62
2022/11/03 03:34:23;;;;;;;22.03;13.77;;;;;;;13.87;100.00;101998.44;2070617;28;20443;-62
2022/11/03 03:35:28;;;;;;;18.63;13.17;;;;;;;13.83;100.00;102014.41;2072132;28;20432;-62
2022/11/03 03:36:30;;;;;;;20.87;13.40;;;;;;;13.84;100.00;102006.88;2072026;28;20850;-62
2022/11/03 03:37:35;;;;;;;21.93;14.10;;;;;;;13.82;100.00;101995.34;2071685;28;20998;-62
2022/11/03 03:38:42;;;;;;;19.57;13.23;;;;;;;13.75;100.00;101995.44;2071492;28;20436;-62
2022/11/03 03:39:48;;;;;;;25.47;13.60;;;;;;;13.66;100.00;101973.69;2071878;28;20405;-62
2022/11/03 03:40:53;;;;;;;20.67;13.83;;;;;;;13.31;100.00;101926.88;2072885;28;20409;-62
2022/11/03 03:41:56;;;;;;;22.00;13.53;;;;;;;13.79;100.00;102002.53;2072212;28;20964;-62
2022/11/03 03:42:59;;;;;;;22.07;13.23;;;;;;;13.78;100.00;102005.78;2070818;28;20446;-63
2022/11/03 03:44:04;;;;;;;20.07;13.63;;;;;;;13.69;100.00;102006.28;2071541;28;20477;-62
2022/11/03 03:45:08;;;;;;;19.27;13.10;;;;;;;13.78;100.00;102006.53;2072417;28;20469;-62
2022/11/03 03:46:11;;;;;;;21.47;14.17;;;;;;;13.23;100.00;101922.59;2072409;28;20442;-62
2022/11/03 03:47:17;;;;;;;21.87;15.10;;;;;;;13.72;100.00;101999.06;2071458;28;20875;-62
2022/11/03 03:48:18;;;;;;;21.77;14.63;;;;;;;13.75;100.00;102010.19;2071294;28;20448;-62
2022/11/03 03:49:19;;;;;;;20.47;13.67;;;;;;;13.58;100.00;101986.16;2072454;28;20499;-62
2022/11/03 03:50:21;;;;;;;22.07;13.83;;;;;;;13.40;100.00;101965.31;2072083;28;20232;-62
2022/11/03 03:51:25;;;;;;;23.07;14.43;;;;;;;13.31;100.00;101943.56;2071930;28;20536;-62
2022/11/03 03:52:26;;;;;;;20.80;13.53;;;;;;;13.55;100.00;101998.13;2072326;28;20468;-62
2022/11/03 03:53:29;;;;;;;19.83;13.80;;;;;;;13.66;100.00;102004.34;2072303;28;20428;-62
2022/11/03 03:54:29;;;;;;;21.40;14.33;;;;;;;13.60;100.00;101994.88;2072159;28;20453;-62
2022/11/03 03:55:41;;;;;;;21.10;14.60;;;;;;;13.62;100.00;102002.81;2072285;28;20447;-62
2022/11/03 03:57:02;;;;;;;21.10;14.60;;;;;;;13.32;100.00;101970.22;2071935;28;20197;-62
2022/11/03 03:58:03;;;;;;;23.73;15.23;;;;;;;13.53;100.00;101992.19;2071836;28;20412;-62
2022/11/03 03:59:04;;;;;;;22.87;15.10;;;;;;;13.49;100.00;102001.81;2072110;28;20961;-62
2022/11/03 04:00:05;;;;;;;20.60;14.00;;;;;;;13.48;100.00;101998.22;2079216;28;20899;-62
2022/11/03 04:01:05;;;;;;;21.57;14.43;;;;;;;13.49;100.00;101996.25;2079489;28;20224;-62
2022/11/03 04:02:06;;;;;;;21.87;13.57;;;;;;;13.45;100.00;101990.72;2072266;28;20511;-62
2022/11/03 04:03:18;;;;;;;21.47;13.13;;;;;;;13.40;100.00;101993.16;2071039;28;20306;-62
2022/11/03 04:04:18;;;;;;;24.50;14.40;;;;;;;13.37;100.00;101991.25;2071996;28;20196;-61
2022/11/03 04:05:19;;;;;;;22.00;13.90;;;;;;;13.32;100.00;101991.72;2071178;28;20449;-62
2022/11/03 04:06:19;;;;;;;23.10;14.77;;;;;;;13.34;100.00;101997.63;2071741;28;20182;-62
2022/11/03 04:08:05;;;;;;;20.03;13.50;;;;;;;13.32;100.00;101998.03;2071929;28;20190;-62
2022/11/03 04:08:40;;;;;;;20.00;13.30;;;;;;;13.22;100.00;101992.63;2063737;28;20295;-62
2022/11/03 04:09:41;;;;;;;23.13;13.93;;;;;;;13.26;100.00;101993.34;2071989;28;20422;-62
2022/11/03 04:22:15;;;;;;;20.60;14.33;;;;;;;13.26;100.00;101994.16;2072618;28;20214;-62
2022/11/03 04:22:37;;;;;;;23.90;14.40;;;;;;;13.15;100.00;101995.50;2071891;28;20440;-61
2022/11/03 04:23:37;;;;;;;20.33;14.27;;;;;;;13.10;100.00;101984.81;2071341;28;20556;-62
2022/11/03 04:24:38;;;;;;;21.77;15.27;;;;;;;13.16;100.00;101997.09;2071440;28;20197;-62
2022/11/03 04:25:39;;;;;;;23.57;14.90;;;;;;;13.12;100.00;101985.22;2072343;28;20562;-62
2022/11/03 04:26:39;;;;;;;24.43;14.90;;;;;;;13.22;100.00;101998.19;2071034;28;20181;-62
2022/11/03 04:27:40;;;;;;;22.40;15.10;;;;;;;13.20;100.00;102003.38;2070465;28;20197;-62
2022/11/03 04:28:41;;;;;;;23.73;14.63;;;;;;;12.91;100.00;101952.06;2071334;28;20186;-62
2022/11/03 04:29:42;;;;;;;22.70;15.27;;;;;;;13.11;100.00;101987.19;2071549;28;20213;-62
2022/11/03 04:30:42;;;;;;;24.00;15.40;;;;;;;13.26;100.00;101999.72;2071472;28;20448;-62
2022/11/03 04:31:43;;;;;;;22.73;15.30;;;;;;;13.22;100.00;102010.09;2072062;28;20209;-62
2022/11/03 04:32:47;;;;;;;26.23;15.10;;;;;;;13.24;100.00;102015.25;2071047;28;20682;-62
2022/11/03 04:33:48;;;;;;;23.77;15.13;;;;;;;13.22;100.00;102012.91;2071311;28;20807;-62
2022/11/03 04:34:49;;;;;;;27.17;15.50;;;;;;;12.48;100.00;101909.25;2072292;28;20424;-62
2022/11/03 04:35:51;;;;;;;21.00;14.53;;;;;;;13.10;100.00;102002.31;2071871;28;20662;-62
2022/11/03 04:36:51;;;;;;;21.67;14.80;;;;;;;13.14;100.00;102011.41;2071402;28;20296;-62
2022/11/03 04:38:08;;;;;;;22.10;15.23;;;;;;;13.14;100.00;102013.41;2071706;28;20445;-62
2022/11/03 04:39:18;;;;;;;23.87;15.23;;;;;;;13.07;100.00;102013.50;2071943;28;20214;-62
2022/11/03 04:40:19;;;;;;;25.83;15.70;;;;;;;13.05;100.00;102013.91;2071368;28;20523;-62
2022/11/03 04:41:24;;;;;;;25.13;16.23;;;;;;;13.04;100.00;102017.09;2071456;28;20922;-62
2022/11/03 04:42:25;;;;;;;22.03;15.23;;;;;;;12.58;100.00;101950.03;2071655;28;20556;-62
2022/11/03 04:43:32;;;;;;;23.73;14.93;;;;;;;12.58;100.00;101944.47;2071102;28;20445;-62
2022/11/03 04:44:32;;;;;;;19.77;13.67;;;;;;;12.99;100.00;102018.38;2071473;28;20651;-62
2022/11/03 04:45:33;;;;;;;23.40;15.10;;;;;;;13.06;100.00;102026.63;2071701;28;20429;-62
2022/11/03 04:46:33;;;;;;;22.27;14.53;;;;;;;13.12;100.00;102019.38;2071876;28;20221;-62
2022/11/03 04:47:34;;;;;;;21.80;14.53;;;;;;;13.05;100.00;102022.25;2071996;28;20596;-62
2022/11/03 04:48:34;;;;;;;21.20;14.93;;;;;;;12.76;100.00;101968.09;2070635;28;20191;-62
2022/11/03 04:49:35;;;;;;;21.33;14.17;;;;;;;13.05;100.00;102018.69;2071475;28;20198;-62
2022/11/03 04:50:35;;;;;;;23.83;15.13;;;;;;;13.02;100.00;102023.06;2071657;28;20195;-62
2022/11/03 04:51:36;;;;;;;28.47;14.27;;;;;;;12.97;100.00;102015.19;2071715;28;20189;-62
2022/11/03 04:52:36;;;;;;;21.93;14.13;;;;;;;13.02;100.00;102011.19;2071753;28;20710;-62
2022/11/03 04:53:38;;;;;;;24.73;14.40;;;;;;;13.10;100.00;102007.88;2071071;28;20217;-62
2022/11/03 04:54:38;;;;;;;28.80;14.47;;;;;;;13.04;100.00;102017.91;2070870;28;20182;-62
2022/11/03 04:55:44;;;;;;;24.00;14.27;;;;;;;13.01;100.00;102004.81;2071875;28;20524;-62
2022/11/03 04:56:44;;;;;;;21.73;14.23;;;;;;;13.04;100.00;102005.97;2071675;28;20183;-62
2022/11/03 04:57:45;;;;;;;21.10;14.30;;;;;;;13.10;100.00;102013.44;2071711;28;20534;-62
2022/11/03 04:58:47;;;;;;;23.73;13.77;;;;;;;13.00;100.00;101989.31;2071348;28;20193;-62
2022/11/03 04:59:49;;;;;;;23.53;15.17;;;;;;;13.13;100.00;102020.97;2071215;28;20649;-62
2022/11/03 05:00:56;;;;;;;21.20;14.13;;;;;;;12.42;100.00;101906.13;2071064;28;20535;-63
2022/11/03 05:01:56;;;;;;;21.07;14.23;;;;;;;13.18;100.00;102020.53;2068138;28;20447;-62
2022/11/03 05:02:56;;;;;;;19.50;14.90;;;;;;;13.20;100.00;102017.28;2068963;28;20483;-62
2022/11/03 05:03:57;;;;;;;22.60;14.13;;;;;;;12.80;100.00;101965.31;2069191;28;20212;-62
2022/11/03 05:04:58;;;;;;;22.13;14.03;;;;;;;12.64;100.00;101942.81;2071770;28;20178;-62
2022/11/03 05:06:08;;;;;;;22.83;14.77;;;;;;;12.62;100.00;101934.09;2070189;28;20193;-62
2022/11/03 05:07:27;;;;;;;21.77;14.67;;;;;;;13.12;100.00;102019.38;2071303;28;20683;-62